Nantucket, MA

7:39 AM EST on March 05, 2015 (GMT -0500)
Nantucket Memorial | Change Station
CLOSE
Current Station
Airport
Location: Nantucket,
Elevation: 46 ft
Nearby Weather Stations
Active Advisory: Winter Storm Warning Active Notice: Public Information Statement

Elev 46 ft 41.25 °N, 70.06 °W | Updated 46 minutes ago

Snow
Snow
33 °F
Feels Like 22 °F
N
18
Wind Variable Wind from NNW

Today
High -- | Low -- °F
--% Chance of Precip.
Yesterday
High -- | Low -- °F
Precip. -- in
6:08 AM 5:35 PM
Full, 100% visible
Pressure 29.98 in
Visibility 1.2 miles
Clouds Mostly Cloudy 500 ft
Overcast 1300 ft
Windchill 22 °F
Dew Point 30 °F
Humidity 89%
Rainfall 0.19 in
Snow Depth Not available.
UV 0 out of 12
Pollen .50 out of 12
Air Quality Not available.
Flu Activity Not available.
METAR KACK 051153Z 34016KT 1 1/4SM -SN BR BKN005 OVC013 01/M01 A2998 RMK AO2 RAE1056SNB1056 SLP152 P0000 60013 70031 T00061011 10028 20006 53026

More Conditions Fewer Conditions

Pressure 29.98 in
Visibility 1.2 miles
Clouds Mostly Cloudy 500 ft
Overcast 1300 ft
Windchill 22 °F
Dew Point 30 °F
Humidity 89%
Rainfall 0.19 in
Snow Depth Not available.
UV 0 out of 12
Pollen .50 out of 12
Air Quality Not available.
Flu Activity Not available.
METAR KACK 051153Z 34016KT 1 1/4SM -SN BR BKN005 OVC013 01/M01 A2998 RMK AO2 RAE1056SNB1056 SLP152 P0000 60013 70031 T00061011 10028 20006 53026

More Conditions Fewer Conditions

10-Day Weather Forecast

Almanac

Astronomy

Mar. 05, 2015 Rise Set
Actual Time
Civil Twilight
Nautical Twilight
Astronomical Twilight
Moon
Length of Visible Light
Length of Day
Tomorrow will be .
, % of the Moon is Illuminated

Today's Extremes

State Highs State Lows

Community

WunderPhotos

Upload Photos

1,802,736 photos uploaded!

WunderBlogs® & News

Nearby

Air Quality

  Air Quality AQ Index Pollutant
Not available.

Snow Depth

Station Depth Elevation

Earthquake Activity

City Distance Mag. Time & Date
Minimum magnitude displayed is 2.5.

Coastal Water Temperatures

Place Temperature

Nearby Weather Stations

Winter Storm Warning
Statement as of 4:13 AM EST on March 05, 2015

... Winter Storm Warning remains in effect until 7 PM EST this
evening...

* locations... Block Island... Marthas Vineyard... and Nantucket.

* Hazard types... snow and sleet.

* Accumulations... 4 to 7 inches of snow.

* Timing... rain and sleet will change to snow early this morning.
Snow will continue much of the day.

* Impacts... falling temperatures into the 20s will create a layer
of ice beneath the snow. Roads and sidewalks will be slippery
and travel may be difficult at times.

* Visibilities... reduced to one-half mile at times.

Precautionary/preparedness actions...

Plan on extra travel time if you must drive today. The best plan
is to stay indoors if possible.